Terminal Aerodrome Forecast
Issued by NWS

Home | Current Version | Previous Version | Text Only | Print | Product List | Glossary On
Versions: 1 2 3 4 5 6 7 8 9 10 11 12 13 14 15 16 17
000
FTAK31 PAFA 192111 AAA
TAFAQT
TAF AMD
PAQT 192111Z 1921/2018 25014KT 3SM -SN BR OVC009
     FM200400 30007KT 2SM -SN BR BKN015 OVC025
     FM201000 05009KT 5SM BR VCSH SCT015 BKN025 OVC050=

USA.gov is the U.S. government's official web portal to all federal, state and local government web resources and services.